createdAt,value
2018-09-02T00:00:40.129Z,11.51
2018-09-02T00:01:40.692Z,11.52
2018-09-02T00:02:41.248Z,11.50
2018-09-02T00:03:41.787Z,11.50
2018-09-02T00:04:42.345Z,11.54
2018-09-02T00:05:42.896Z,11.45
2018-09-02T00:06:43.450Z,11.44
2018-09-02T00:07:43.998Z,11.30
2018-09-02T00:08:44.548Z,11.27
2018-09-02T00:09:45.097Z,11.34
2018-09-02T00:10:45.638Z,11.27
2018-09-02T00:11:46.189Z,11.37
2018-09-02T00:12:46.741Z,11.36
2018-09-02T00:13:47.308Z,11.33
2018-09-02T00:14:47.843Z,11.22
2018-09-02T00:15:48.395Z,11.36
2018-09-02T00:16:48.948Z,11.36
2018-09-02T00:17:49.496Z,11.33
2018-09-02T00:18:50.046Z,11.29
2018-09-02T00:19:50.590Z,11.26
2018-09-02T00:20:51.139Z,11.22
2018-09-02T00:21:51.692Z,11.27
2018-09-02T00:22:52.244Z,11.27
2018-09-02T00:23:52.795Z,11.21
2018-09-02T00:24:53.343Z,11.24
2018-09-02T00:25:53.894Z,11.27
2018-09-02T00:26:54.446Z,11.22
2018-09-02T00:27:54.998Z,11.24
2018-09-02T00:28:55.548Z,11.27
2018-09-02T00:29:56.094Z,11.29
2018-09-02T00:30:56.644Z,11.29
2018-09-02T00:31:57.195Z,11.27
2018-09-02T00:32:57.806Z,11.27
2018-09-02T00:33:58.394Z,11.29
2018-09-02T00:34:58.851Z,11.26
2018-09-02T00:35:59.386Z,11.27
2018-09-02T00:36:59.938Z,11.24
2018-09-02T00:38:00.484Z,11.24
2018-09-02T00:39:01.031Z,11.30
2018-09-02T00:40:01.576Z,11.22
2018-09-02T00:41:02.125Z,11.19
2018-09-02T00:42:02.675Z,11.22
2018-09-02T00:43:03.226Z,11.14
2018-09-02T00:44:03.774Z,11.12
2018-09-02T00:45:04.326Z,11.07
2018-09-02T00:46:04.879Z,11.07
2018-09-02T00:47:05.429Z,11.15
2018-09-02T00:48:05.977Z,11.09
2018-09-02T00:49:06.526Z,11.07
2018-09-02T00:50:07.078Z,11.07
2018-09-02T00:51:07.621Z,11.14
2018-09-02T00:52:08.171Z,10.96
2018-09-02T00:53:08.723Z,10.99
2018-09-02T00:54:09.273Z,10.99
2018-09-02T00:55:09.825Z,11.08
2018-09-02T00:56:10.376Z,11.04
2018-09-02T00:57:10.919Z,11.01
2018-09-02T00:58:11.469Z,11.11
2018-09-02T00:59:12.024Z,11.00
2018-09-02T01:00:12.572Z,11.00
2018-09-02T01:01:13.126Z,11.04
2018-09-02T01:02:13.673Z,10.97
2018-09-02T01:03:14.220Z,10.96
2018-09-02T01:04:14.776Z,11.01
2018-09-02T01:05:15.316Z,10.97
2018-09-02T01:06:15.867Z,10.99
2018-09-02T01:07:16.417Z,10.94
2018-09-02T01:08:16.960Z,10.87
2018-09-02T01:09:17.511Z,10.82
2018-09-02T01:10:18.062Z,10.93
2018-09-02T01:11:18.615Z,10.87
2018-09-02T01:12:19.164Z,10.79
2018-09-02T01:13:19.710Z,10.89
2018-09-02T01:14:20.260Z,10.85
2018-09-02T01:15:20.813Z,10.94
2018-09-02T01:16:21.362Z,10.81
2018-09-02T01:17:21.910Z,10.82
2018-09-02T01:18:22.458Z,10.78
2018-09-02T01:19:23.011Z,10.75
2018-09-02T01:20:23.566Z,10.74
2018-09-02T01:21:24.113Z,10.61
2018-09-02T01:22:24.658Z,10.58
2018-09-02T01:23:25.201Z,10.61
2018-09-02T01:24:25.746Z,10.72
2018-09-02T01:25:26.296Z,10.72
2018-09-02T01:26:26.880Z,10.63
2018-09-02T01:27:27.400Z,10.69
2018-09-02T01:28:27.946Z,10.64
2018-09-02T01:29:28.489Z,10.67
2018-09-02T01:30:29.038Z,10.63
2018-09-02T01:31:29.581Z,10.64
2018-09-02T01:32:30.131Z,10.64
2018-09-02T01:33:30.684Z,10.63
2018-09-02T01:34:31.236Z,10.69
2018-09-02T01:35:31.784Z,10.66
2018-09-02T01:36:32.334Z,10.58
2018-09-02T01:37:32.885Z,10.49
2018-09-02T01:38:33.436Z,10.47
2018-09-02T01:39:33.984Z,10.51
2018-09-02T01:40:34.527Z,10.47
2018-09-02T01:41:35.076Z,10.39
2018-09-02T01:42:35.626Z,10.39
2018-09-02T01:43:36.175Z,10.32
2018-09-02T01:44:36.724Z,10.29
2018-09-02T01:45:37.268Z,10.32
2018-09-02T01:46:37.812Z,10.20
2018-09-02T01:47:38.361Z,10.31
2018-09-02T01:48:38.910Z,10.34
2018-09-02T01:49:39.462Z,10.31
2018-09-02T01:50:40.015Z,10.24
2018-09-02T01:51:40.566Z,10.31
2018-09-02T01:52:41.114Z,10.17
2018-09-02T01:53:41.656Z,10.24
2018-09-02T01:54:42.205Z,10.26
2018-09-02T01:55:42.755Z,10.22
2018-09-02T01:56:43.299Z,10.16
2018-09-02T01:57:43.851Z,10.22
2018-09-02T01:58:44.401Z,10.13
2018-09-02T01:59:44.943Z,10.16
2018-09-02T02:00:45.494Z,10.23
2018-09-02T02:01:46.045Z,10.19
2018-09-02T02:02:46.596Z,10.09
2018-09-02T02:03:47.145Z,10.05
2018-09-02T02:04:47.699Z,10.05
2018-09-02T02:05:48.245Z,10.05
2018-09-02T02:06:48.787Z,10.08
2018-09-02T02:07:49.330Z,10.01
2018-09-02T02:08:49.878Z,9.99
2018-09-02T02:09:50.430Z,9.98
2018-09-02T02:10:50.974Z,10.04
2018-09-02T02:11:51.523Z,9.99
2018-09-02T02:12:52.068Z,9.99
2018-09-02T02:13:52.618Z,10.09
2018-09-02T02:14:53.163Z,9.96
2018-09-02T02:15:53.711Z,9.84
2018-09-02T02:16:54.261Z,9.90
2018-09-02T02:17:54.803Z,9.90
2018-09-02T02:18:55.346Z,9.83
2018-09-02T02:19:55.891Z,9.79
2018-09-02T02:20:56.437Z,9.90
2018-09-02T02:21:56.984Z,9.83
2018-09-02T02:22:57.534Z,9.87
2018-09-02T02:23:58.081Z,9.80
2018-09-02T02:24:58.628Z,9.88
2018-09-02T02:25:59.176Z,9.95
2018-09-02T02:26:59.719Z,9.91
2018-09-02T02:28:00.273Z,9.83
2018-09-02T02:29:00.809Z,9.88
2018-09-02T02:30:01.354Z,9.95
2018-09-02T02:31:01.900Z,9.95
2018-09-02T02:32:02.444Z,9.90
2018-09-02T02:33:02.997Z,9.95
2018-09-02T02:34:03.546Z,9.83
2018-09-02T02:35:04.099Z,9.94
2018-09-02T02:36:04.650Z,9.95
2018-09-02T02:37:05.194Z,9.90
2018-09-02T02:38:05.736Z,9.87
2018-09-02T02:39:06.278Z,9.91
2018-09-02T02:40:06.827Z,9.95
2018-09-02T02:41:07.379Z,9.91
2018-09-02T02:42:07.925Z,9.86
2018-09-02T02:43:08.473Z,9.98
2018-09-02T02:44:09.013Z,9.90
2018-09-02T02:45:09.557Z,9.83
2018-09-02T02:46:10.103Z,9.95
2018-09-02T02:47:10.650Z,9.91
2018-09-02T02:48:11.202Z,9.87
2018-09-02T02:49:11.756Z,9.94
2018-09-02T02:50:12.302Z,9.83
2018-09-02T02:51:12.851Z,9.86
2018-09-02T02:52:13.401Z,9.80
2018-09-02T02:53:13.953Z,9.84
2018-09-02T02:54:14.502Z,9.86
2018-09-02T02:55:15.046Z,9.81
2018-09-02T02:56:15.593Z,9.77
2018-09-02T02:57:16.143Z,9.86
2018-09-02T02:58:16.700Z,9.83
2018-09-02T02:59:17.243Z,9.86
2018-09-02T03:00:17.797Z,9.83
2018-09-02T03:01:18.343Z,9.77
2018-09-02T03:02:18.889Z,9.86
2018-09-02T03:03:19.438Z,9.91
2018-09-02T03:04:19.980Z,9.84
2018-09-02T03:05:20.529Z,9.77
2018-09-02T03:06:21.084Z,9.84
2018-09-02T03:07:21.636Z,9.83
2018-09-02T03:08:22.183Z,9.81
2018-09-02T03:09:22.732Z,9.81
2018-09-02T03:10:23.275Z,9.79
2018-09-02T03:11:23.825Z,9.71
2018-09-02T03:12:24.373Z,9.74
2018-09-02T03:13:24.924Z,9.68
2018-09-02T03:14:25.474Z,9.76
2018-09-02T03:15:26.016Z,9.74
2018-09-02T03:16:26.558Z,9.66
2018-09-02T03:17:27.099Z,9.72
2018-09-02T03:18:27.640Z,9.69
2018-09-02T03:19:28.185Z,9.79
2018-09-02T03:20:28.731Z,9.72
2018-09-02T03:21:29.283Z,9.71
2018-09-02T03:22:29.831Z,9.68
2018-09-02T03:23:30.375Z,9.63
2018-09-02T03:24:30.927Z,9.63
2018-09-02T03:25:31.467Z,9.71
2018-09-02T03:26:32.015Z,9.71
2018-09-02T03:27:32.558Z,9.62
2018-09-02T03:28:33.099Z,9.63
2018-09-02T03:29:33.640Z,9.74
2018-09-02T03:30:34.194Z,9.72
2018-09-02T03:31:34.737Z,9.62
2018-09-02T03:32:35.286Z,9.63
2018-09-02T03:33:35.828Z,9.48
2018-09-02T03:34:36.368Z,9.68
2018-09-02T03:35:36.916Z,9.61
2018-09-02T03:36:37.465Z,9.61
2018-09-02T03:37:38.006Z,9.62
2018-09-02T03:38:38.555Z,9.65
2018-09-02T03:39:39.102Z,9.62
2018-09-02T03:40:39.652Z,9.61
2018-09-02T03:41:40.202Z,9.56
2018-09-02T03:42:40.751Z,9.51
2018-09-02T03:43:41.300Z,9.59
2018-09-02T03:44:41.840Z,9.53
2018-09-02T03:45:42.381Z,9.54
2018-09-02T03:46:42.933Z,9.53
2018-09-02T03:47:43.482Z,9.35
2018-09-02T03:48:44.028Z,9.40
2018-09-02T03:49:44.577Z,9.38
2018-09-02T03:50:45.130Z,9.53
2018-09-02T03:51:45.675Z,9.41
2018-09-02T03:52:46.229Z,9.36
2018-09-02T03:53:46.777Z,9.44
2018-09-02T03:54:47.317Z,9.36
2018-09-02T03:55:47.868Z,9.38
2018-09-02T03:56:48.418Z,9.40
2018-09-02T03:57:48.958Z,9.38
2018-09-02T03:58:49.504Z,9.32
2018-09-02T03:59:50.053Z,9.35
2018-09-02T04:00:50.601Z,9.33
2018-09-02T04:01:51.149Z,9.30
2018-09-02T04:02:51.699Z,9.29
2018-09-02T04:03:52.247Z,9.30
2018-09-02T04:04:52.799Z,9.30
2018-09-02T04:05:53.345Z,9.30
2018-09-02T04:06:53.898Z,9.29
2018-09-02T04:07:54.443Z,9.30
2018-09-02T04:08:54.989Z,9.26
2018-09-02T04:09:55.526Z,9.22
2018-09-02T04:10:56.077Z,9.25
2018-09-02T04:11:56.624Z,9.26
2018-09-02T04:12:57.166Z,9.12
2018-09-02T04:13:57.713Z,9.08
2018-09-02T04:14:58.264Z,9.08
2018-09-02T04:15:58.803Z,9.06
2018-09-02T04:16:59.352Z,9.03
2018-09-02T04:17:59.894Z,9.01
2018-09-02T04:19:00.445Z,9.08
2018-09-02T04:20:01.062Z,9.03
2018-09-02T04:21:01.532Z,9.01
2018-09-02T04:22:02.080Z,9.01
2018-09-02T04:23:02.627Z,9.00
2018-09-02T04:24:03.175Z,8.96
2018-09-02T04:25:03.719Z,8.95
2018-09-02T04:26:04.271Z,8.95
2018-09-02T04:27:04.817Z,8.96
2018-09-02T04:28:05.357Z,8.96
2018-09-02T04:29:05.908Z,8.92
2018-09-02T04:30:06.487Z,8.92
2018-09-02T04:31:07.007Z,8.89
2018-09-02T04:32:07.617Z,8.95
2018-09-02T04:33:08.105Z,8.89
2018-09-02T04:34:08.661Z,8.88
2018-09-02T04:35:09.204Z,8.81
2018-09-02T04:36:09.751Z,8.88
2018-09-02T04:37:10.294Z,8.81
2018-09-02T04:38:10.846Z,8.76
2018-09-02T04:39:11.397Z,8.88
2018-09-02T04:40:11.948Z,8.77
2018-09-02T04:41:12.491Z,8.76
2018-09-02T04:42:13.043Z,8.77
2018-09-02T04:43:13.594Z,8.85
2018-09-02T04:44:14.136Z,8.84
2018-09-02T04:45:14.750Z,8.85
2018-09-02T04:46:15.229Z,8.84
2018-09-02T04:47:15.774Z,8.82
2018-09-02T04:48:16.325Z,8.82
2018-09-02T04:49:16.878Z,8.74
2018-09-02T04:50:17.431Z,8.76
2018-09-02T04:51:17.983Z,8.76
2018-09-02T04:52:18.535Z,8.78
2018-09-02T04:53:19.083Z,8.74
2018-09-02T04:54:19.734Z,8.81
2018-09-02T04:55:20.177Z,8.84
2018-09-02T04:56:20.730Z,8.84
2018-09-02T04:57:21.282Z,8.74
2018-09-02T04:58:21.830Z,8.78
2018-09-02T04:59:22.376Z,8.78
2018-09-02T05:00:22.939Z,8.76
2018-09-02T05:01:23.464Z,8.74
2018-09-02T05:02:24.020Z,8.84
2018-09-02T05:03:24.570Z,8.88
2018-09-02T05:04:25.124Z,8.82
2018-09-02T05:05:25.674Z,8.84
2018-09-02T05:06:26.220Z,8.88
2018-09-02T05:07:26.773Z,8.93
2018-09-02T05:08:27.320Z,8.92
2018-09-02T05:09:27.872Z,8.92
2018-09-02T05:10:28.424Z,8.92
2018-09-02T05:11:28.976Z,9.03
2018-09-02T05:12:29.529Z,8.95
2018-09-02T05:13:30.082Z,9.00
2018-09-02T05:14:30.638Z,9.11
2018-09-02T05:15:31.182Z,9.10
2018-09-02T05:16:31.740Z,9.06
2018-09-02T05:17:32.293Z,9.22
2018-09-02T05:18:32.844Z,9.20
2018-09-02T05:19:33.397Z,9.26
2018-09-02T05:20:33.944Z,9.30
2018-09-02T05:21:34.495Z,9.45
2018-09-02T05:22:35.051Z,9.47
2018-09-02T05:23:35.604Z,9.54
2018-09-02T05:24:36.148Z,9.63
2018-09-02T05:25:36.705Z,9.69
2018-09-02T05:26:37.261Z,9.63
2018-09-02T05:27:37.813Z,9.62
2018-09-02T05:28:38.365Z,9.72
2018-09-02T05:29:38.923Z,9.79
2018-09-02T05:30:39.469Z,9.84
2018-09-02T05:31:40.017Z,10.13
2018-09-02T05:32:40.573Z,10.34
2018-09-02T05:33:41.121Z,10.44
2018-09-02T05:34:41.673Z,10.42
2018-09-02T05:35:42.232Z,10.44
2018-09-02T05:36:42.793Z,10.75
2018-09-02T05:37:43.348Z,11.03
2018-09-02T05:38:43.905Z,11.44
2018-09-02T05:39:44.456Z,11.67
2018-09-02T05:40:45.014Z,11.84
2018-09-02T05:41:45.574Z,12.04
2018-09-02T05:42:46.124Z,12.04
2018-09-02T05:43:46.683Z,12.29
2018-09-02T05:44:47.243Z,12.57
2018-09-02T05:45:47.800Z,12.76
2018-09-02T05:46:48.359Z,13.04
2018-09-02T05:47:48.922Z,13.23
2018-09-02T05:48:49.470Z,13.35
2018-09-02T05:49:50.029Z,13.59
2018-09-02T05:50:50.590Z,13.50
2018-09-02T05:51:51.143Z,13.53
2018-09-02T05:52:51.701Z,13.63
2018-09-02T05:53:52.254Z,13.86
2018-09-02T05:54:52.815Z,14.14
2018-09-02T05:55:53.377Z,14.25
2018-09-02T05:56:53.928Z,14.50
2018-09-02T05:57:54.488Z,14.69
2018-09-02T05:58:55.055Z,15.03
2018-09-02T05:59:55.613Z,15.28
2018-09-02T06:00:56.178Z,15.50
2018-09-02T06:01:56.737Z,15.83
2018-09-02T06:02:57.298Z,15.87
2018-09-02T06:03:57.859Z,15.97
2018-09-02T06:04:58.477Z,16.01
2018-09-02T06:05:58.986Z,15.97
2018-09-02T06:06:59.548Z,15.75
2018-09-02T06:08:00.112Z,15.68
2018-09-02T06:09:00.671Z,15.75
2018-09-02T06:10:01.233Z,15.98
2018-09-02T06:11:01.796Z,16.29
2018-09-02T06:12:02.354Z,16.49
2018-09-02T06:13:02.912Z,16.68
2018-09-02T06:14:03.577Z,16.78
2018-09-02T06:15:04.032Z,16.49
2018-09-02T06:16:04.588Z,16.25
2018-09-02T06:17:05.153Z,16.35
2018-09-02T06:18:05.714Z,16.66
2018-09-02T06:19:06.271Z,16.89
2018-09-02T06:20:06.830Z,17.14
2018-09-02T06:21:07.390Z,17.34
2018-09-02T06:22:07.953Z,17.79
2018-09-02T06:23:08.515Z,18.11
2018-09-02T06:24:09.069Z,18.34
2018-09-02T06:25:09.632Z,18.34
2018-09-02T06:26:10.190Z,18.10
2018-09-02T06:27:10.755Z,17.92
2018-09-02T06:28:11.310Z,17.95
2018-09-02T06:29:11.870Z,18.18
2018-09-02T06:30:12.489Z,18.22
2018-09-02T06:31:12.996Z,18.47
2018-09-02T06:32:13.561Z,18.81
2018-09-02T06:33:14.125Z,18.98
2018-09-02T06:34:14.691Z,19.04
2018-09-02T06:35:15.260Z,19.15
2018-09-02T06:36:15.845Z,19.31
2018-09-02T06:37:16.393Z,19.36
2018-09-02T06:38:16.950Z,19.37
2018-09-02T06:39:17.565Z,19.47
2018-09-02T06:40:18.084Z,19.76
2018-09-02T06:41:18.655Z,19.80
2018-09-02T06:42:19.220Z,19.71
2018-09-02T06:43:19.786Z,19.94
2018-09-02T06:44:20.359Z,19.98
2018-09-02T06:45:20.924Z,20.06
2018-09-02T06:46:21.490Z,20.29
2018-09-02T06:47:22.054Z,20.57
2018-09-02T06:48:22.621Z,20.69
2018-09-02T06:49:23.181Z,20.80
2018-09-02T06:50:23.751Z,21.02
2018-09-02T06:51:24.309Z,21.20
2018-09-02T06:52:24.881Z,21.37
2018-09-02T06:53:25.447Z,21.47
2018-09-02T06:54:26.010Z,21.54
2018-09-02T06:55:26.576Z,21.60
2018-09-02T06:56:27.147Z,21.96
2018-09-02T06:57:27.707Z,22.10
2018-09-02T06:58:28.286Z,22.14
2018-09-02T06:59:28.844Z,22.17
2018-09-02T07:00:29.405Z,22.28
2018-09-02T07:01:29.974Z,22.47
2018-09-02T07:02:30.537Z,22.70
2018-09-02T07:03:31.102Z,22.90
2018-09-02T07:04:31.669Z,22.99
2018-09-02T07:05:32.239Z,22.99
2018-09-02T07:06:32.871Z,23.10
2018-09-02T07:07:33.381Z,23.16
2018-09-02T07:08:33.949Z,23.28
2018-09-02T07:09:34.542Z,23.32
2018-09-02T07:10:35.093Z,23.44
2018-09-02T07:11:35.662Z,23.46
2018-09-02T07:12:36.233Z,23.23
2018-09-02T07:13:36.802Z,23.24
2018-09-02T07:14:37.367Z,23.12
2018-09-02T07:15:37.935Z,23.13
2018-09-02T07:16:38.507Z,23.31
2018-09-02T07:17:39.077Z,23.51
2018-09-02T07:18:39.646Z,23.62
2018-09-02T07:19:40.218Z,23.71
2018-09-02T07:20:40.789Z,23.80
2018-09-02T07:21:41.360Z,23.77
2018-09-02T07:22:41.923Z,23.69
2018-09-02T07:23:42.493Z,23.81
2018-09-02T07:24:43.064Z,23.84
2018-09-02T07:25:43.633Z,23.96
2018-09-02T07:26:44.202Z,24.17
2018-09-02T07:27:44.774Z,24.36
2018-09-02T07:28:45.345Z,24.56
2018-09-02T07:29:45.920Z,24.68
2018-09-02T07:30:46.494Z,24.58
2018-09-02T07:31:47.067Z,24.69
2018-09-02T07:32:47.627Z,24.51
2018-09-02T07:33:48.192Z,24.56
2018-09-02T07:34:48.755Z,24.68
2018-09-02T07:35:49.321Z,24.69
2018-09-02T07:36:49.891Z,25.01
2018-09-02T07:37:50.456Z,25.13
2018-09-02T07:38:51.028Z,25.02
2018-09-02T07:39:51.597Z,25.09
2018-09-02T07:40:52.165Z,25.17
2018-09-02T07:41:52.736Z,25.47
2018-09-02T07:42:53.304Z,25.50
2018-09-02T07:43:53.982Z,25.62
2018-09-02T07:44:54.442Z,25.76
2018-09-02T07:45:55.012Z,26.03
2018-09-02T07:46:55.585Z,26.12
2018-09-02T07:47:56.156Z,26.46
2018-09-02T07:48:56.725Z,26.48
2018-09-02T07:49:57.294Z,26.29
2018-09-02T07:50:57.860Z,26.19
2018-09-02T07:51:58.432Z,26.12
2018-09-02T07:52:59.003Z,26.54
2018-09-02T07:53:59.573Z,26.76
2018-09-02T07:55:00.143Z,26.80
2018-09-02T07:56:00.713Z,26.73
2018-09-02T07:57:01.279Z,26.87
2018-09-02T07:58:01.852Z,26.96
2018-09-02T07:59:02.412Z,27.08
2018-09-02T08:00:02.978Z,27.40
2018-09-02T08:01:03.550Z,27.45
2018-09-02T08:02:04.121Z,27.17
2018-09-02T08:03:04.692Z,27.43
2018-09-02T08:04:05.265Z,27.55
2018-09-02T08:05:05.837Z,27.55
2018-09-02T08:06:06.411Z,27.67
2018-09-02T08:07:06.984Z,27.99
2018-09-02T08:08:07.558Z,27.77
2018-09-02T08:09:08.129Z,27.70
2018-09-02T08:10:08.698Z,27.67
2018-09-02T08:11:09.262Z,27.83
2018-09-02T08:12:09.838Z,27.78
2018-09-02T08:13:10.408Z,27.63
2018-09-02T08:14:10.982Z,27.66
2018-09-02T08:15:11.552Z,27.45
2018-09-02T08:16:12.127Z,27.51
2018-09-02T08:17:12.694Z,27.45
2018-09-02T08:18:13.267Z,27.67
2018-09-02T08:19:13.840Z,27.78
2018-09-02T08:20:14.413Z,27.88
2018-09-02T08:21:14.985Z,27.71
2018-09-02T08:22:15.560Z,27.63
2018-09-02T08:23:16.139Z,27.66
2018-09-02T08:24:16.704Z,27.58
2018-09-02T08:25:17.277Z,27.54
2018-09-02T08:26:17.857Z,27.54
2018-09-02T08:27:18.423Z,27.54
2018-09-02T08:28:18.998Z,27.48
2018-09-02T08:29:19.562Z,27.25
2018-09-02T08:30:20.128Z,27.25
2018-09-02T08:31:20.703Z,27.20
2018-09-02T08:32:21.265Z,26.99
2018-09-02T08:33:21.829Z,27.05
2018-09-02T08:34:22.402Z,26.95
2018-09-02T08:35:22.975Z,27.00
2018-09-02T08:36:23.550Z,26.99
2018-09-02T08:37:24.119Z,27.00
2018-09-02T08:38:24.684Z,27.00
2018-09-02T08:39:25.261Z,27.24
2018-09-02T08:40:25.835Z,27.45
2018-09-02T08:41:26.404Z,27.48
2018-09-02T08:42:26.981Z,27.40
2018-09-02T08:43:27.552Z,27.45
2018-09-02T08:44:28.126Z,27.54
2018-09-02T08:45:28.696Z,27.80
2018-09-02T08:46:29.269Z,28.08
2018-09-02T08:47:29.843Z,27.89
2018-09-02T08:48:30.415Z,27.77
2018-09-02T08:49:30.981Z,27.66
2018-09-02T08:50:31.634Z,27.43
2018-09-02T08:51:32.127Z,27.36
2018-09-02T08:52:32.688Z,27.50
2018-09-02T08:53:33.260Z,27.32
2018-09-02T08:54:33.833Z,27.08
2018-09-02T08:55:34.405Z,27.17
2018-09-02T08:56:34.979Z,27.02
2018-09-02T08:57:35.553Z,27.15
2018-09-02T08:58:36.131Z,27.51
2018-09-02T08:59:36.702Z,27.62
2018-09-02T09:00:37.277Z,27.77
2018-09-02T09:01:37.888Z,27.98
2018-09-02T09:02:38.422Z,28.27
2018-09-02T09:03:38.998Z,28.08
2018-09-02T09:04:39.564Z,28.08
2018-09-02T09:05:40.137Z,27.99
2018-09-02T09:06:40.710Z,28.03
2018-09-02T09:07:41.422Z,28.08
2018-09-02T09:08:41.925Z,28.27
2018-09-02T09:09:42.416Z,27.92
2018-09-02T09:10:42.990Z,27.93
2018-09-02T09:11:43.563Z,27.98
2018-09-02T09:12:44.136Z,27.90
2018-09-02T09:13:44.712Z,27.88
2018-09-02T09:14:45.283Z,27.86
2018-09-02T09:15:45.848Z,27.76
2018-09-02T09:16:46.476Z,27.78
2018-09-02T09:17:46.990Z,27.85
2018-09-02T09:18:47.564Z,28.18
2018-09-02T09:19:48.135Z,28.08
2018-09-02T09:20:48.709Z,27.86
2018-09-02T09:21:49.276Z,27.98
2018-09-02T09:22:49.905Z,28.23
2018-09-02T09:23:50.416Z,27.63
2018-09-02T09:24:51.025Z,27.67
2018-09-02T09:25:51.560Z,27.77
2018-09-02T09:26:52.127Z,28.11
2018-09-02T09:27:52.691Z,28.41
2018-09-02T09:28:53.264Z,28.51
2018-09-02T09:29:53.836Z,28.30
2018-09-02T09:30:54.408Z,28.23
2018-09-02T09:31:54.981Z,28.30
2018-09-02T09:32:55.602Z,28.20
2018-09-02T09:33:56.175Z,28.38
2018-09-02T09:34:56.739Z,28.25
2018-09-02T09:35:57.309Z,28.27
2018-09-02T09:36:57.883Z,28.27
2018-09-02T09:37:58.451Z,28.33
2018-09-02T09:38:59.025Z,27.89
2018-09-02T09:39:59.589Z,27.80
2018-09-02T09:41:00.153Z,27.98
2018-09-02T09:42:00.726Z,27.85
2018-09-02T09:43:01.292Z,27.85
2018-09-02T09:44:01.859Z,27.71
2018-09-02T09:45:02.430Z,28.05
2018-09-02T09:46:03.031Z,28.38
2018-09-02T09:47:03.571Z,28.65
2018-09-02T09:48:04.143Z,28.92
2018-09-02T09:49:04.707Z,29.07
2018-09-02T09:50:05.280Z,28.92
2018-09-02T09:51:05.852Z,28.87
2018-09-02T09:52:06.439Z,28.59
2018-09-02T09:53:06.991Z,28.55
2018-09-02T09:54:07.556Z,28.51
2018-09-02T09:55:08.129Z,28.23
2018-09-02T09:56:08.700Z,27.88
2018-09-02T09:57:09.266Z,27.47
2018-09-02T09:58:09.840Z,27.76
2018-09-02T09:59:10.413Z,27.83
2018-09-02T10:00:10.985Z,27.78
2018-09-02T10:01:11.557Z,27.43
2018-09-02T10:02:12.129Z,27.40
2018-09-02T10:03:12.705Z,27.51
2018-09-02T10:04:13.277Z,27.99
2018-09-02T10:05:13.849Z,28.08
2018-09-02T10:06:14.421Z,28.08
2018-09-02T10:07:14.995Z,28.26
2018-09-02T10:08:15.597Z,28.29
2018-09-02T10:09:16.131Z,28.14
2018-09-02T10:10:16.752Z,27.88
2018-09-02T10:11:17.265Z,27.99
2018-09-02T10:12:17.843Z,28.25
2018-09-02T10:13:18.410Z,28.26
2018-09-02T10:14:18.988Z,28.20
2018-09-02T10:15:19.559Z,28.23
2018-09-02T10:16:20.134Z,27.77
2018-09-02T10:18:21.270Z,27.92
2018-09-02T10:19:21.837Z,27.98
2018-09-02T10:20:22.408Z,27.99
2018-09-02T10:21:22.983Z,28.10
2018-09-02T10:22:23.555Z,28.26
2018-09-02T10:23:24.134Z,28.30
2018-09-02T10:24:24.701Z,28.42
2018-09-02T10:25:25.267Z,28.60
2018-09-02T10:26:25.836Z,28.60
2018-09-02T10:27:26.482Z,28.79
2018-09-02T10:28:26.977Z,29.10
2018-09-02T10:29:27.543Z,28.78
2018-09-02T10:30:28.115Z,28.32
2018-09-02T10:31:28.687Z,28.07
2018-09-02T10:32:29.260Z,28.23
2018-09-02T10:33:29.892Z,28.52
2018-09-02T10:34:30.400Z,29.03
2018-09-02T10:35:30.972Z,29.17
2018-09-02T10:36:31.541Z,29.20
2018-09-02T10:37:32.111Z,29.13
2018-09-02T10:38:32.683Z,29.23
2018-09-02T10:39:33.255Z,29.34
2018-09-02T10:40:33.828Z,29.52
2018-09-02T10:41:34.607Z,29.87
2018-09-02T10:42:34.968Z,30.06
2018-09-02T10:43:35.534Z,30.33
2018-09-02T10:44:36.101Z,30.68
2018-09-02T10:45:36.674Z,30.60
2018-09-02T10:46:37.248Z,30.00
2018-09-02T10:47:37.819Z,29.60
2018-09-02T10:48:38.393Z,29.50
2018-09-02T10:49:38.985Z,29.47
2018-09-02T10:50:39.535Z,29.47
2018-09-02T10:51:40.106Z,29.59
2018-09-02T10:52:40.671Z,29.37
2018-09-02T10:53:41.245Z,28.91
2018-09-02T10:54:41.817Z,29.10
2018-09-02T10:55:42.390Z,29.07
2018-09-02T10:56:42.963Z,29.23
2018-09-02T10:57:43.527Z,29.25
2018-09-02T10:58:44.101Z,29.37
2018-09-02T10:59:44.749Z,29.89
2018-09-02T11:00:45.247Z,30.18
2018-09-02T11:01:45.806Z,30.59
2018-09-02T11:02:46.370Z,30.60
2018-09-02T11:03:46.945Z,30.53
2018-09-02T11:04:47.519Z,30.44
2018-09-02T11:05:48.085Z,29.89
2018-09-02T11:06:48.655Z,29.29
2018-09-02T11:07:49.346Z,29.05
2018-09-02T11:08:49.861Z,28.94
2018-09-02T11:09:50.356Z,29.38
2018-09-02T11:10:50.925Z,29.38
2018-09-02T11:11:51.494Z,29.29
2018-09-02T11:12:52.115Z,29.32
2018-09-02T11:13:52.806Z,29.13
2018-09-02T11:14:53.207Z,29.13
2018-09-02T11:15:53.778Z,29.26
2018-09-02T11:16:54.349Z,29.20
2018-09-02T11:17:54.919Z,29.45
2018-09-02T11:18:55.508Z,29.99
2018-09-02T11:19:56.068Z,30.15
2018-09-02T11:20:56.639Z,30.49
2018-09-02T11:21:57.215Z,30.64
2018-09-02T11:22:57.775Z,30.13
2018-09-02T11:23:58.348Z,30.16
2018-09-02T11:24:58.920Z,30.28
2018-09-02T11:25:59.493Z,30.30
2018-09-02T11:27:00.066Z,30.35
2018-09-02T11:28:00.631Z,30.13
2018-09-02T11:29:01.203Z,30.19
2018-09-02T11:30:01.776Z,30.34
2018-09-02T11:31:02.353Z,30.28
2018-09-02T11:32:02.922Z,29.85
2018-09-02T11:33:03.489Z,29.52
2018-09-02T11:34:04.100Z,29.16
2018-09-02T11:35:04.627Z,29.04
2018-09-02T11:36:05.208Z,28.55
2018-09-02T11:37:05.779Z,28.25
2018-09-02T11:38:06.354Z,28.29
2018-09-02T11:39:06.915Z,28.75
2018-09-02T11:40:07.485Z,28.91
2018-09-02T11:41:08.056Z,28.78
2018-09-02T11:42:08.625Z,28.84
2018-09-02T11:43:09.196Z,29.23
2018-09-02T11:44:09.767Z,29.97
2018-09-02T11:45:10.378Z,30.11
2018-09-02T11:46:10.909Z,30.47
2018-09-02T11:47:11.482Z,31.05
2018-09-02T11:48:12.043Z,31.10
2018-09-02T11:49:12.612Z,31.27
2018-09-02T11:50:13.183Z,31.05
2018-09-02T11:51:13.752Z,30.90
2018-09-02T11:52:14.317Z,31.28
2018-09-02T11:53:14.885Z,31.57
2018-09-02T11:54:15.452Z,31.74
2018-09-02T11:55:16.026Z,31.15
2018-09-02T11:56:16.601Z,30.56
2018-09-02T11:57:17.173Z,29.99
2018-09-02T11:58:17.745Z,29.76
2018-09-02T11:59:18.307Z,29.37
2018-09-02T12:00:18.871Z,29.19
2018-09-02T12:01:19.444Z,29.07
2018-09-02T12:02:20.014Z,29.42
2018-09-02T12:03:20.590Z,29.67
2018-09-02T12:04:21.160Z,30.09
2018-09-02T12:05:21.734Z,30.40
2018-09-02T12:06:22.305Z,30.50
2018-09-02T12:07:22.875Z,30.64
2018-09-02T12:08:23.470Z,30.60
2018-09-02T12:09:24.022Z,30.71
2018-09-02T12:10:24.605Z,31.05
2018-09-02T12:11:25.159Z,31.52
2018-09-02T12:12:25.730Z,31.49
2018-09-02T12:13:26.302Z,31.36
2018-09-02T12:14:26.877Z,31.55
2018-09-02T12:15:27.449Z,31.49
2018-09-02T12:16:28.013Z,31.27
2018-09-02T12:17:28.590Z,31.31
2018-09-02T12:18:29.157Z,30.71
2018-09-02T12:19:29.729Z,30.56
2018-09-02T12:20:30.300Z,30.87
2018-09-02T12:21:30.878Z,31.27
2018-09-02T12:22:31.445Z,30.87
2018-09-02T12:23:32.019Z,30.69
2018-09-02T12:24:32.591Z,30.59
2018-09-02T12:25:33.174Z,30.21
2018-09-02T12:26:33.795Z,29.99
2018-09-02T12:27:34.372Z,29.74
2018-09-02T12:28:34.969Z,30.00
2018-09-02T12:29:35.512Z,30.26
2018-09-02T12:30:36.076Z,30.86
2018-09-02T12:31:36.763Z,30.88
2018-09-02T12:32:37.217Z,30.43
2018-09-02T12:33:37.793Z,30.15
2018-09-02T12:34:38.361Z,29.93
2018-09-02T12:35:38.930Z,29.85
2018-09-02T12:36:39.502Z,30.27
2018-09-02T12:37:40.071Z,30.83
2018-09-02T12:38:40.639Z,31.21
2018-09-02T12:39:41.258Z,31.37
2018-09-02T12:40:41.779Z,31.27
2018-09-02T12:41:42.350Z,31.54
2018-09-02T12:42:42.914Z,31.18
2018-09-02T12:43:43.482Z,30.73
2018-09-02T12:44:44.053Z,30.28
2018-09-02T12:45:44.625Z,29.72
2018-09-02T12:46:45.193Z,29.34
2018-09-02T12:47:45.836Z,29.23
2018-09-02T12:48:46.331Z,29.00
2018-09-02T12:49:46.901Z,28.87
2018-09-02T12:50:47.470Z,28.84
2018-09-02T12:51:48.040Z,28.73
2018-09-02T12:52:48.610Z,28.41
2018-09-02T12:53:49.183Z,28.22
2018-09-02T12:54:49.753Z,28.07
2018-09-02T12:55:50.540Z,28.03
2018-09-02T12:56:50.879Z,28.05
2018-09-02T12:57:51.451Z,28.15
2018-09-02T12:58:52.145Z,28.23
2018-09-02T12:59:52.585Z,28.63
2018-09-02T13:00:53.150Z,28.89
2018-09-02T13:01:53.718Z,29.27
2018-09-02T13:02:54.281Z,29.42
2018-09-02T13:03:54.852Z,29.45
2018-09-02T13:04:55.420Z,29.29
2018-09-02T13:05:55.989Z,29.08
2018-09-02T13:06:56.558Z,28.66
2018-09-02T13:07:57.120Z,28.30